Boyd Deep Canyon Reserve, California Weather observations

Data are for 10 minute period ending at time listed.
 Day   Time   Solar   Ave.   Ave.  Ave.  Vector  Max.   Baro.   Total    
  of    of     Rad.   Air    Rel.  Wind   Wind   Wind  Press.  Precip.   
Year   Day            Temp.  Hum.  Speed  Dir.   Gust                    
2016   (PST)  Kw/m2    F      %     mph   deg.    mph    mb.     in.     
-------------------------------------------------------------------------
 208    8:00   0.52   98.0    22    5.5   336     7.7   976.3    0.00 
 208    8:10   0.55   98.8    22    6.1    10     9.8   976.4    0.00 
 208    8:20   0.58   98.4    22    6.3   349     8.9   976.5    0.00 
 208    8:30   0.61   98.5    22    7.4   337     9.9   976.6    0.00 
 208    8:40   0.64   99.0    21    6.9   351    10.7   976.6    0.00 
 208    8:50   0.66   99.4    20    6.9   347     9.7   976.5    0.00 
 208    9:00   0.69   99.2    19    6.7   349    10.2   976.5    0.00 
 208    9:10   0.72   99.9    19    5.8   354     9.1   976.6    0.00 
 208    9:20   0.74  100.1    19    5.8   355     9.1   976.6    0.00 
 208    9:30   0.76  100.5    19    6.5     4     9.6   976.6    0.00 
 208    9:40   0.79  100.4    20    7.1    65    11.5   976.6    0.00 
 208    9:50   0.81   99.8    21    6.7    82    11.0   976.7    0.00 
 208   10:00   0.83  100.0    21    5.4    72    10.7   976.7    0.00 
 208   10:10   0.84   99.8    20    6.7    62    12.1   976.6    0.00 
 208   10:20   0.86  100.8    20    5.5    56     9.6   976.5    0.00 
 208   10:30   0.88  100.6    21    6.0    54    11.8   976.5    0.00 
 208   10:40   0.89  101.0    22    6.4    46    12.0   976.4    0.00 
 208   10:50   0.90  101.0    23    6.4    69    13.8   976.3    0.00 
 208   11:00   0.91  100.6    24    6.9    72    12.3   976.2    0.00 
 208   11:10   0.91  101.2    23    7.8    60    13.5   976.1    0.00 
 208   11:20   0.92  101.7    22    6.4    57    12.1   976.0    0.00 
 208   11:30   0.92  102.4    22    7.2    53    12.7   975.8    0.00 
 208   11:40   0.92  101.7    22    6.2    65     9.9   975.8    0.00 
 208   11:50   0.93  102.3    22    4.8    71     9.6   975.7    0.00 
 208   12:00   0.93  102.1    22    3.9    65     9.7   975.6    0.00 
 208   12:10   0.92  102.6    22    4.6    89    10.6   975.3    0.00 
 208   12:20   0.90  103.0    21    3.5    60    10.0   975.1    0.00 
 208   12:30   0.92  103.5    21    3.1    78     7.8   975.0    0.00 
 208   12:40   0.91  104.2    20    3.4    75    10.8   975.0    0.00 
 208   12:50   0.91  104.5    20    5.0    59    14.1   974.8    0.00 
 208   13:00   0.89  104.2    21    4.9    44    11.5   974.7    0.00 
 208   13:10   0.88  104.2    21    7.6    36    15.4   974.5    0.00 
 208   13:20   0.86  104.5    22    7.9    34    16.9   974.4    0.00 
 208   13:30   0.85  104.3    22    5.9    51    13.0   974.2    0.00 
 208   13:40   0.84  104.5    21    7.7    65    14.7   974.2    0.00 
 208   13:50   0.82  105.3    20    7.3    53    14.8   974.0    0.00 
 208   14:00   0.80  105.4    19    4.9    92    12.3   973.8    0.00 
 208   14:10   0.78  105.5    19    5.7    70    11.7   973.6    0.00 
 208   14:20   0.76  106.1    18    5.3    54    12.3   973.5    0.00 
 208   14:30   0.74  106.2    18    7.9    32    14.2   973.3    0.00 
 208   14:40   0.71  105.6    19    6.8    65    13.9   973.1    0.00 
 208   14:50   0.68  105.9    19    7.5    58    15.9   973.0    0.00 
 208   15:00   0.66  105.9    19    6.3    65    10.7   972.9    0.00 
 208   15:10   0.63  105.7    19    6.8    62    12.3   972.7    0.00 
 208   15:20   0.60  105.5    19    7.6    77    13.3   972.7    0.00 
 208   15:30   0.57  105.7    18    7.0    68    13.3   972.6    0.00 
 208   15:40   0.54  106.1    18    8.5    55    14.0   972.4    0.00 
 208   15:50   0.51  106.1    18    7.5    74    12.6   972.4    0.00 
 208   16:00   0.48  106.4    18    6.4    57    11.6   972.3    0.00 
 208   16:10   0.45  106.4    18    7.0    70    11.0   972.3    0.00 
 208   16:20   0.41  106.3    19    5.6    78    11.8   972.3    0.00 
 208   16:30   0.37  106.5    19    6.4    69    11.4   972.2    0.00 
 208   16:40   0.34  106.4    19    6.0    62    12.5   972.1    0.00 
 208   16:50   0.30  105.6    20    7.2    77    10.6   972.1    0.00 
 208   17:00   0.27  105.5    20    6.0    75    10.7   972.1    0.00 
 208   17:10   0.24  105.6    20    5.8    74    10.4   972.0    0.00 
 208   17:20   0.20  106.1    18    3.4    87     7.8   972.0    0.00 
 208   17:30   0.17  106.3    18    4.1    90     8.6   972.1    0.00 
 208   17:40   0.12  105.8    19    5.4    58     8.0   972.1    0.00 
 208   17:50   0.04  105.2    19    6.2    61     9.7   972.2    0.00 
 208   18:00   0.04  104.7    20    5.3    70     9.0   972.2    0.00 
 208   18:10   0.03  104.1    21    4.5    89     8.0   972.3    0.00 
 208   18:20   0.03  103.8    22    3.4   101     7.1   972.4    0.00 
 208   18:30   0.01  103.4    22    4.8   102     7.6   972.4    0.00 
 208   18:40   0.01  103.1    22    4.3    90     7.7   972.4    0.00 
 208   18:50   0.00  102.8    23    5.0    96    10.2   972.5    0.00 
 208   19:00   0.00  102.3    23    5.8    86     8.8   972.6    0.00 
 208   19:10   0.00  102.2    23    3.6   102     8.8   972.7    0.00 
 208   19:20   0.00  102.1    22    3.9    89     7.4   972.8    0.00 
 208   19:30   0.00  102.6    18    5.5   170     8.8   972.8    0.00 
 208   19:40   0.00  102.6    18    7.0   173    12.3   973.0    0.00 
 208   19:50   0.00  102.1    18    7.4   179    11.4   973.1    0.00 
 208   20:00   0.00  101.6    19    8.6   173    11.8   973.3    0.00 
 208   20:10   0.00  101.1    19    8.7   178    13.3   973.4    0.00 
 208   20:20   0.00  100.7    20    8.8   188    13.4   973.6    0.00 
 208   20:30   0.00  100.3    21    6.0   226     8.5   973.7    0.00 
 208   20:40   0.00  100.2    20    6.1   217     9.9   973.9    0.00 
 208   20:50   0.00  100.0    19    4.5   192     9.1   974.0    0.00 
 208   21:00   0.00   99.9    19    5.6   192     9.8   974.0    0.00 
 208   21:10   0.00   99.7    20    4.1   163     8.6   974.1    0.00 
 208   21:20   0.00   99.8    21    4.1   142     6.6   974.2    0.00 
 208   21:30   0.00   99.5    20    1.3   194     3.4   974.1    0.00 
 208   21:40   0.00   99.6    19    5.3   150     8.6   974.0    0.00 
 208   21:50   0.00   99.4    19    1.6   146     6.8   974.0    0.00 
 208   22:00   0.00   96.6    22    3.9     2     7.3   974.0    0.00 
 208   22:10   0.00   95.6    22    2.4    46     5.0   974.1    0.00 
 208   22:20   0.00   94.9    23    3.2    53     5.6   974.2    0.00 
 208   22:30   0.00   94.5    23    3.7    68     5.9   974.2    0.00 
 208   22:40   0.00   94.1    23    1.8    52     4.0   974.2    0.00 
 208   22:50   0.00   93.7    24    0.7    60     1.9   974.2    0.00 
 208   23:00   0.00   93.5    24    0.1    66     1.0   974.1    0.00 
 208   23:10   0.00   93.1    24    0.0     0     0.0   974.0    0.00 
 208   23:20   0.00   92.7    24    0.0     0     0.0   973.8    0.00 
 208   23:30   0.00   92.5    24    0.0     0     0.0   973.7    0.00 
 208   23:40   0.00   92.5    24    0.0     0     0.0   973.6    0.00 
 208   23:50   0.00   92.4    24    0.8    24     2.6   973.6    0.00 
 209    0:00   0.00   91.7    25    1.6    10     2.8   973.6    0.00 
 209    0:10   0.00   91.2    26    1.0    51     2.3   973.4    0.00 
 209    0:20   0.00   91.1    26    0.3    79     1.0   973.3    0.00 
 209    0:30   0.00   90.9    26    0.0    70     0.7   973.2    0.00 
 209    0:40   0.00   90.6    26    0.6    54     1.5   973.2    0.00 
 209    0:50   0.00   90.4    27    0.2    64     0.9   973.1    0.00 
 209    1:00   0.00   90.2    26    0.1    35     0.8   973.0    0.00 
 209    1:10   0.00   89.9    26    1.0    57     2.0   973.0    0.00 
 209    1:20   0.00   90.1    26    0.1    47     1.1   973.0    0.00 
 209    1:30   0.00   89.9    26    0.1    44     1.5   973.0    0.00 
 209    1:40   0.00   89.6    27    1.3    50     1.8   973.1    0.00 
 209    1:50   0.00   89.6    26    0.6    42     2.0   973.2    0.00 
 209    2:00   0.00   89.7    26    0.1    10     1.2   973.2    0.00 
 209    2:10   0.00   89.4    25    0.2    57     1.4   973.2    0.00 
 209    2:20   0.00   89.1    25    1.2    45     2.3   973.2    0.00 
 209    2:30   0.00   88.8    25    0.3    19     1.4   973.4    0.00 
 209    2:40   0.00   88.8    25    1.4   196     3.7   973.5    0.00 
 209    2:50   0.00   89.0    25    3.0   194     4.2   973.5    0.00 
 209    3:00   0.00   89.5    24    3.5   195     4.5   973.5    0.00 
 209    3:10   0.00   89.4    24    2.9   206     4.9   973.5    0.00 
 209    3:20   0.00   89.2    25    1.4    80     2.9   973.5    0.00 
 209    3:30   0.00   89.2    25    0.0    81     0.6   973.6    0.00 
 209    3:40   0.00   88.9    25    0.0     0     0.0   973.7    0.00 
 209    3:50   0.00   88.7    25    0.4   211     1.8   973.7    0.00 
 209    4:00   0.00   88.8    26    1.1   208     2.0   973.8    0.00 
 209    4:10   0.00   89.3    25    0.6   219     1.6   973.9    0.00 
 209    4:20   0.00   89.2    26    0.8    70     1.8   974.0    0.00 
 209    4:30   0.00   88.6    26    0.6   251     1.5   974.1    0.00 
 209    4:40   0.00   88.8    26    0.2   233     1.4   974.3    0.00 
 209    4:50   0.00   88.5    26    1.3   233     2.7   974.3    0.00 
 209    5:00   0.00   88.8    26    2.1   198     3.0   974.4    0.00 
 209    5:10   0.01   87.9    27    1.0    53     2.8   974.5    0.00 
 209    5:20   0.01   88.1    27    0.0     0     0.0   974.5    0.00 
 209    5:30   0.02   88.6    27    1.0    37     3.1   974.5    0.00 
 209    5:40   0.03   88.8    26    4.6   335     8.7   974.7    0.00 
 209    5:50   0.08   89.7    25    4.7   338     9.0   974.8    0.00 
 209    6:00   0.12   90.4    24    6.3    16    11.1   975.2    0.00 
 209    6:10   0.15   91.5    24    2.0    99     7.2   975.3    0.00 
 209    6:20   0.18   92.6    23    1.8   140     3.3   975.4    0.00 
 209    6:30   0.21   92.5    23    3.5    13     4.9   975.5    0.00 
 209    6:40   0.24   92.4    23    2.1   345     4.5   975.5    0.00 
 209    6:50   0.28   94.2    22    0.7     5     2.0   975.7    0.00 
 209    7:00   0.31   94.8    21    1.6    12     3.6   975.9    0.00 
 209    7:10   0.34   94.5    22    3.5    13     6.2   976.0    0.00 
 209    7:20   0.38   94.1    22    3.7    10     7.0   976.1    0.00 
 209    7:30   0.41   95.0    21    2.9    23     6.0   976.2    0.00 
 209    7:40   0.45   95.0    21    4.3    18     6.2   976.3    0.00 
 209    7:50   0.48   95.2    21    4.2    10     7.2   976.4    0.00 

Return to Boyd Deep Canyon Reserve graphs page.


Western Regional Climate Center,wrcc@dri.edu